Amargosa Valley, Nevada Weather observations

Data are for observation ending at time listed.
 Day   Time    Ave.   Ave.  Ave.  Vector   Max.   Stn.    Total    Solar   Ave.  
  of    of     Air    Rel.  Wind   Wind    Wind   Baro.  Precip.   Rad.    Soil  
Year   Day     Temp.  Hum.  Speed  Dir.    Gust   Pres.                    Temp. 
2015   (PST)    F      %     mph   deg.    mph     mb.     in.     W/m2     F   
------------------------------------------------------------------------------
  25    8:50   58.2    32    1.3   338      2.6   938.5    0.00     243    54.4
  25    9:00   59.1    31    2.6   324      5.3   938.5    0.00      67    54.3
  25    9:10   59.3    31    3.6   320      6.6   938.5    0.00     362    54.4
  25    9:20   60.3    30    2.8   327      7.5   938.7    0.00     387    54.3
  25    9:30   61.2    29    3.0   318      5.5   938.8    0.00     411    54.3
  25    9:40   61.2    29    5.6   305     10.4   938.9    0.00     436    54.3
  25    9:50   62.0    28    5.3   306      8.3   938.8    0.00     458    54.3
  25   10:00   63.3    27    3.3   313      7.3   938.8    0.00     477    54.3
  25   10:10   64.4    26    3.3   319      6.6   938.8    0.00     495    54.3
  25   10:20   65.0    25    3.4   321      7.5   938.8    0.00     513    54.3
  25   10:30   66.4    25    2.4   322      6.2   938.7    0.00     529    54.4
  25   10:40   67.7    24    2.1   318      7.8   938.7    0.00     542    54.4
  25   10:50   68.0    24    2.4   325      8.1   938.6    0.00     555    54.5
  25   11:00   68.8    23    2.4   335      7.5   938.3    0.00     565    54.6
  25   11:10   69.7    22    2.2   340      6.3   938.2    0.00     575    54.7
  25   11:20   70.3    22    2.0   358      7.0   937.9    0.00     583    54.8
  25   11:30   70.9    22    2.6    12     10.0   937.6    0.00     589    55.0
  25   11:40   71.2    21    3.7    18      9.5   937.3    0.00     596    55.1
  25   11:50   71.6    21    2.6   359     10.9   937.1    0.00     599    55.2
  25   12:00   71.9    21    3.0    15      9.8   936.8    0.00     600    55.3
  25   12:10   72.2    20    2.6     5      7.2   936.6    0.00     600    55.5
  25   12:20   72.5    20    2.4    12      7.1   936.5    0.00     596    55.6
  25   12:30   73.3    20    2.9    37      8.0   936.3    0.00     595    55.7
  25   12:40   74.4    19    4.6    48      9.3   936.0    0.00     589    55.9
  25   12:50   74.7    18    5.3    43      9.6   935.8    0.00     583    56.0
  25   13:00   75.3    18    6.0    46     12.0   935.6    0.00     574    56.2
  25   13:10   76.0    17    5.7    43     12.0   935.5    0.00     563    56.4
  25   13:20   76.2    17    6.3    34     12.4   935.2    0.00     550    56.7
  25   13:30   76.1    17    4.9    27     11.5   935.2    0.00     536    56.9
  25   13:40   76.5    17    4.2    72      9.9   935.1    0.00     523    57.1
  25   13:50   77.1    17    2.7    51      8.0   934.9    0.00     505    57.4
  25   14:00   77.0    17    4.5    78      8.3   934.9    0.00     489    57.6
  25   14:10   77.5    16    3.3    56      7.9   934.8    0.00     468    57.8
  25   14:20   77.3    16    5.3    81     10.5   934.8    0.00     449    58.1
  25   14:30   77.4    16    4.1    64     11.2   934.8    0.00     426    58.4
  25   14:40   77.7    16    3.6    61      9.3   934.7    0.00     402    58.6
  25   14:50   78.0    16    3.8    65     11.8   934.6    0.00     378    58.9
  25   15:00   77.3    16    6.3    86     11.0   934.6    0.00     354    59.1
  25   15:10   77.3    16    6.1    85     10.1   934.6    0.00     327    59.4
  25   15:20   77.4    16    4.9    79     11.0   934.5    0.00     299    59.6
  25   15:30   77.4    16    6.8    80     14.1   934.5    0.00     271    59.9
  25   15:40   76.9    16    7.9    82     13.4   934.3    0.00     244    60.1
  25   15:50   76.9    16    4.3    54     11.6   934.3    0.00     213    60.3
  25   16:00   76.9    16    3.7    65      7.6   934.2    0.00     185    60.5
  25   16:10   76.7    16    3.2    61      7.4   934.3    0.00     157    60.8
  25   16:20   76.3    16    3.9    65      8.3   934.4    0.00     128    61.0
  25   16:30   75.4    17    5.4    82      8.6   934.3    0.00      92    61.2
  25   16:40   74.5    18    4.5    79     10.4   934.1    0.00      58    61.4
  25   16:50   74.2    18    6.3    80     11.9   934.0    0.00      31    61.5
  25   17:00   72.8    18    2.4    66      4.8   934.0    0.00       6    61.7
  25   17:10   71.9    19    1.1    83      3.6   934.0    0.00       2    61.8
  25   17:20   70.2    20    1.8   225      4.7   934.0    0.00       0    61.9
  25   17:30   68.5    22    1.2   249      3.5   934.1    0.00       0    62.1
  25   17:40   67.3    23    0.1   316      0.8   934.1    0.00       0    62.2
  25   17:50   67.2    23    2.1   308      5.7   934.1    0.00       0    62.2
  25   18:00   68.1    22    2.9   306      5.2   934.1    0.00       0    62.3
  25   18:10   68.5    22    2.5   307      4.7   934.0    0.00       0    62.3
  25   18:20   67.4    23    0.2   327      2.0   934.0    0.00       0    62.4
  25   18:30   66.2    24    0.2   315      2.2   934.0    0.00       0    62.4
  25   18:40   66.5    24    0.2   326      3.8   933.8    0.00       0    62.4
  25   18:50   66.7    24    0.5   280      2.1   933.8    0.00       0    62.4
  25   19:00   66.2    24    2.6   311      6.1   933.9    0.00       0    62.3
  25   19:10   67.0    24    4.4   307      8.1   933.9    0.00       0    62.3
  25   19:20   66.6    24    3.2   313      8.3   933.9    0.00       0    62.3
  25   19:30   63.8    26    3.3   316      8.7   933.8    0.00       0    62.3
  25   19:40   64.8    25    1.7   331      4.8   933.8    0.00       0    62.2
  25   19:50   63.9    26    1.8   356      7.2   933.8    0.00       0    62.2
  25   20:00   61.8    27    1.1   328      5.6   933.8    0.00       0    62.2
  25   20:10   60.9    28    1.3   318      5.0   933.9    0.00       0    62.2
  25   20:20   60.6    28    2.9   308      5.8   934.0    0.00       0    62.1
  25   20:30   60.9    28    2.8   308      6.0   934.0    0.00       0    62.0
  25   20:40   60.7    28    1.3   316      3.5   934.2    0.00       0    62.0
  25   20:50   59.7    29    0.8   335      2.6   934.1    0.00       0    61.9
  25   21:00   58.5    30    0.5   340      2.2   934.0    0.00       0    61.8
  25   21:10   57.7    31    0.3   331      1.9   934.1    0.00       0    61.8
  25   21:20   57.1    31    0.3   338      1.8   934.2    0.00       0    61.7
  25   21:30   57.7    31    0.3   354      1.5   934.2    0.00       0    61.7
  25   21:40   58.3    30    0.5     8      3.8   934.3    0.00       0    61.6
  25   21:50   58.8    30    1.3    23      4.3   934.3    0.00       0    61.5
  25   22:00   58.0    30    1.1    24      2.9   934.4    0.00       0    61.4
  25   22:10   57.0    31    0.2   349      1.5   934.5    0.00       0    61.4
  25   22:20   56.3    32    0.9    28      3.9   934.6    0.00       0    61.3
  25   22:30   55.7    32    1.1   332      4.1   934.6    0.00       0    61.2
  25   22:40   56.0    32    2.2   318      4.5   934.6    0.00       0    61.2
  25   22:50   56.0    32    1.5   320      3.9   934.7    0.00       0    61.1
  25   23:00   57.0    31    2.9   317      4.9   934.7    0.00       0    61.0
  25   23:10   58.0    30    3.1   317      5.4   934.7    0.00       0    61.0
  25   23:20   58.5    29    2.2   316      5.4   934.7    0.00       0    60.9
  25   23:30   56.0    31    0.8    37      2.6   934.6    0.00       0    60.8
  25   23:40   54.6    33    0.5    48      2.0   934.5    0.00       0    60.8
  25   23:50   55.1    32    0.3   357      2.0   934.3    0.00       0    60.7
  26    0:00   56.4    30    0.4     0      2.5   934.2    0.00       0    60.6
  26    0:10   55.2    32    0.1   342      1.2   934.2    0.00       0    60.5
  26    0:20   55.9    31    0.7   344      2.0   934.1    0.00       0    60.5
  26    0:30   54.1    32    1.1   329      2.2   934.1    0.00       0    60.4
  26    0:40   53.7    33    1.0   313      3.1   934.2    0.00       0    60.3
  26    0:50   51.6    36    0.9   278      4.5   934.2    0.00       0    60.3
  26    1:00   51.4    36    1.1   286      3.2   934.3    0.00       0    60.2
  26    1:10   53.0    33    2.0   313      4.3   934.2    0.00       0    60.1
  26    1:20   51.4    35    1.5   319      3.5   934.2    0.00       0    60.0
  26    1:30   51.2    35    0.6   333      2.3   934.2    0.00       0    60.0
  26    1:40   51.5    34    0.6   339      1.7   934.2    0.00       0    59.9
  26    1:50   52.0    34    1.1   332      4.8   934.2    0.00       0    59.8
  26    2:00   53.3    32    1.8   346      6.3   934.2    0.00       0    59.7
  26    2:10   53.2    32    2.0   338      5.6   934.2    0.00       0    59.6
  26    2:20   53.0    32    1.7   336      4.5   934.2    0.00       0    59.6
  26    2:30   52.7    32    1.5   347      5.1   934.3    0.00       0    59.5
  26    2:40   50.8    35    1.2   333      3.7   934.2    0.00       0    59.4
  26    2:50   49.1    37    0.2   341      1.1   934.2    0.00       0    59.3
  26    3:00   48.5    38    0.2   353      1.2   934.1    0.00       0    59.3
  26    3:10   49.0    37    0.4     2      1.2   934.0    0.00       0    59.2
  26    3:20   49.0    37    0.2   354      1.7   933.9    0.00       0    59.1
  26    3:30   47.9    39    0.5     2      1.8   933.8    0.00       0    59.0
  26    3:40   46.9    40    0.3     3      1.2   933.7    0.00       0    58.9
  26    3:50   48.2    38    0.2     7      1.2   933.7    0.00       0    58.9
  26    4:00   48.5    38    0.5   335      2.0   933.7    0.00       0    58.8
  26    4:10   49.6    36    0.3   351      1.8   933.6    0.00       0    58.7
  26    4:20   49.5    36    0.5   344      1.6   933.5    0.00       0    58.6
  26    4:30   47.6    39    1.8   322      5.6   933.6    0.00       0    58.5
  26    4:40   46.6    40    3.1   317      6.6   933.5    0.00       0    58.5
  26    4:50   47.8    39    2.0   320      5.6   933.5    0.00       0    58.4
  26    5:00   48.3    38    0.7   329      1.8   933.5    0.00       0    58.3
  26    5:10   47.5    39    0.2   349      0.9   933.4    0.00       0    58.2
  26    5:20   46.4    41    1.0   330      3.1   933.4    0.00       0    58.2
  26    5:30   45.8    42    0.8   328      2.9   933.5    0.00       0    58.1
  26    5:40   45.8    42    2.3   319      4.3   933.4    0.00       0    58.0
  26    5:50   47.5    40    2.2   320      5.0   933.5    0.00       0    57.9
  26    6:00   48.3    39    1.2   322      2.9   933.6    0.00       0    57.8
  26    6:10   48.3    39    0.9   318      3.4   933.7    0.00       0    57.7
  26    6:20   48.1    39    1.6   322      4.4   933.7    0.00       0    57.7
  26    6:30   47.8    40    1.2   331      3.1   933.7    0.00       0    57.6
  26    6:40   46.6    41    1.2   331      2.9   933.8    0.00       0    57.5
  26    6:50   45.7    43    1.4   328      3.3   933.7    0.00       0    57.4
  26    7:00   45.2    43    1.3   326      3.7   933.7    0.00       2    57.4
  26    7:10   45.2    43    1.1   324      4.3   933.8    0.00       9    57.3
  26    7:20   44.9    44    1.1   337      3.4   933.9    0.00      19    57.2
  26    7:30   44.5    44    0.9   341      3.0   933.9    0.00      38    57.1
  26    7:40   45.3    43    0.6   327      3.0   934.0    0.00      67    57.0
  26    7:50   47.7    41    0.9   338      3.1   934.0    0.00      95    56.9
  26    8:00   49.4    38    0.5   342      1.5   934.1    0.00     113    56.9
  26    8:10   50.2    38    0.8   318      3.4   934.3    0.00      86    56.8
  26    8:20   51.1    38    0.7   320      2.8   934.4    0.00      79    56.7
  26    8:30   51.2    39    0.2   343      1.5   934.3    0.00     102    56.6
  26    8:40   51.4    38    0.7   330      1.8   934.3    0.00     134    56.6

Return to Amargosa Valley, Nevada graphs page.


Western Regional Climate Center,wrcc@dri.edu